sensor_id;sensor_type;location;lat;lon;timestamp;P1;durP1;ratioP1;P2;durP2;ratioP2
46110;SDS011;31849;55.992;37.252;2023-06-10T00:04:14;4.05;;;2.60;;
46110;SDS011;31849;55.992;37.252;2023-06-10T00:09:20;4.10;;;2.75;;
46110;SDS011;31849;55.992;37.252;2023-06-10T00:14:24;7.05;;;2.67;;
46110;SDS011;31849;55.992;37.252;2023-06-10T00:19:28;3.38;;;2.28;;
46110;SDS011;31849;55.992;37.252;2023-06-10T00:24:33;3.80;;;2.25;;
46110;SDS011;31849;55.992;37.252;2023-06-10T00:29:37;3.45;;;2.40;;
46110;SDS011;31849;55.992;37.252;2023-06-10T00:34:41;4.50;;;2.60;;
46110;SDS011;31849;55.992;37.252;2023-06-10T00:39:46;4.45;;;2.47;;
46110;SDS011;31849;55.992;37.252;2023-06-10T00:44:50;5.18;;;2.58;;
46110;SDS011;31849;55.992;37.252;2023-06-10T00:49:53;4.75;;;2.50;;
46110;SDS011;31849;55.992;37.252;2023-06-10T00:54:59;6.13;;;2.47;;
46110;SDS011;31849;55.992;37.252;2023-06-10T01:00:05;4.72;;;2.63;;
46110;SDS011;31849;55.992;37.252;2023-06-10T01:05:10;5.95;;;2.63;;
46110;SDS011;31849;55.992;37.252;2023-06-10T01:10:19;6.47;;;2.78;;
46110;SDS011;31849;55.992;37.252;2023-06-10T01:15:26;4.85;;;2.25;;
46110;SDS011;31849;55.992;37.252;2023-06-10T01:20:31;4.37;;;2.40;;
46110;SDS011;31849;55.992;37.252;2023-06-10T01:25:37;6.55;;;2.65;;
46110;SDS011;31849;55.992;37.252;2023-06-10T01:30:43;6.80;;;2.60;;
46110;SDS011;31849;55.992;37.252;2023-06-10T01:35:52;4.32;;;2.50;;
46110;SDS011;31849;55.992;37.252;2023-06-10T01:40:59;4.30;;;2.67;;
46110;SDS011;31849;55.992;37.252;2023-06-10T01:46:05;5.28;;;2.63;;
46110;SDS011;31849;55.992;37.252;2023-06-10T01:51:09;4.45;;;3.00;;
46110;SDS011;31849;55.992;37.252;2023-06-10T01:56:14;6.80;;;2.67;;
46110;SDS011;31849;55.992;37.252;2023-06-10T02:01:20;6.75;;;2.70;;
46110;SDS011;31849;55.992;37.252;2023-06-10T02:06:24;4.25;;;2.85;;
46110;SDS011;31849;55.992;37.252;2023-06-10T02:11:29;6.57;;;3.00;;
46110;SDS011;31849;55.992;37.252;2023-06-10T02:16:33;7.00;;;2.78;;
46110;SDS011;31849;55.992;37.252;2023-06-10T02:21:37;5.40;;;2.67;;
46110;SDS011;31849;55.992;37.252;2023-06-10T02:26:42;5.10;;;2.65;;
46110;SDS011;31849;55.992;37.252;2023-06-10T02:31:46;4.25;;;2.17;;
46110;SDS011;31849;55.992;37.252;2023-06-10T02:36:49;5.38;;;2.42;;
46110;SDS011;31849;55.992;37.252;2023-06-10T02:41:54;4.07;;;2.30;;
46110;SDS011;31849;55.992;37.252;2023-06-10T02:46:58;5.20;;;2.50;;
46110;SDS011;31849;55.992;37.252;2023-06-10T02:52:03;5.18;;;2.25;;
46110;SDS011;31849;55.992;37.252;2023-06-10T02:57:10;4.00;;;2.00;;
46110;SDS011;31849;55.992;37.252;2023-06-10T03:02:13;4.70;;;2.30;;
46110;SDS011;31849;55.992;37.252;2023-06-10T03:07:17;3.80;;;2.10;;
46110;SDS011;31849;55.992;37.252;2023-06-10T03:12:23;4.28;;;2.17;;
46110;SDS011;31849;55.992;37.252;2023-06-10T03:17:27;2.80;;;1.83;;
46110;SDS011;31849;55.992;37.252;2023-06-10T03:22:31;5.55;;;1.90;;
46110;SDS011;31849;55.992;37.252;2023-06-10T03:27:36;3.72;;;1.88;;
46110;SDS011;31849;55.992;37.252;2023-06-10T03:32:39;3.53;;;1.80;;
46110;SDS011;31849;55.992;37.252;2023-06-10T03:37:43;2.45;;;1.58;;
46110;SDS011;31849;55.992;37.252;2023-06-10T03:42:48;3.97;;;1.65;;
46110;SDS011;31849;55.992;37.252;2023-06-10T03:47:52;3.67;;;1.40;;
46110;SDS011;31849;55.992;37.252;2023-06-10T03:52:56;5.77;;;1.87;;
46110;SDS011;31849;55.992;37.252;2023-06-10T03:58:02;3.22;;;1.65;;
46110;SDS011;31849;55.992;37.252;2023-06-10T04:03:05;4.50;;;1.70;;
46110;SDS011;31849;55.992;37.252;2023-06-10T04:08:11;4.45;;;1.77;;
46110;SDS011;31849;55.992;37.252;2023-06-10T04:13:16;4.87;;;1.70;;
46110;SDS011;31849;55.992;37.252;2023-06-10T04:18:20;2.85;;;1.55;;
46110;SDS011;31849;55.992;37.252;2023-06-10T04:23:24;4.00;;;1.70;;
46110;SDS011;31849;55.992;37.252;2023-06-10T04:28:29;3.97;;;1.65;;
46110;SDS011;31849;55.992;37.252;2023-06-10T04:33:33;2.13;;;1.45;;
46110;SDS011;31849;55.992;37.252;2023-06-10T04:43:41;4.22;;;1.50;;
46110;SDS011;31849;55.992;37.252;2023-06-10T04:48:45;2.97;;;1.50;;
46110;SDS011;31849;55.992;37.252;2023-06-10T04:53:49;2.15;;;1.50;;
46110;SDS011;31849;55.992;37.252;2023-06-10T04:58:55;3.15;;;1.60;;
46110;SDS011;31849;55.992;37.252;2023-06-10T05:03:59;2.95;;;1.30;;
46110;SDS011;31849;55.992;37.252;2023-06-10T05:09:03;2.33;;;1.45;;
46110;SDS011;31849;55.992;37.252;2023-06-10T05:14:08;3.40;;;1.52;;
46110;SDS011;31849;55.992;37.252;2023-06-10T05:19:12;4.65;;;1.50;;
46110;SDS011;31849;55.992;37.252;2023-06-10T05:24:18;2.45;;;1.70;;
46110;SDS011;31849;55.992;37.252;2023-06-10T05:29:23;3.00;;;1.65;;
46110;SDS011;31849;55.992;37.252;2023-06-10T05:34:27;2.97;;;1.50;;
46110;SDS011;31849;55.992;37.252;2023-06-10T05:39:31;4.20;;;1.60;;
46110;SDS011;31849;55.992;37.252;2023-06-10T05:44:36;3.40;;;1.60;;
46110;SDS011;31849;55.992;37.252;2023-06-10T05:49:39;3.33;;;1.40;;
46110;SDS011;31849;55.992;37.252;2023-06-10T05:54:43;3.40;;;1.65;;
46110;SDS011;31849;55.992;37.252;2023-06-10T05:59:48;5.80;;;1.52;;
46110;SDS011;31849;55.992;37.252;2023-06-10T06:04:51;3.30;;;1.55;;
46110;SDS011;31849;55.992;37.252;2023-06-10T06:09:55;3.70;;;1.73;;
46110;SDS011;31849;55.992;37.252;2023-06-10T06:15:00;3.75;;;1.80;;
46110;SDS011;31849;55.992;37.252;2023-06-10T06:20:05;2.97;;;1.70;;
46110;SDS011;31849;55.992;37.252;2023-06-10T06:25:10;4.85;;;1.30;;
46110;SDS011;31849;55.992;37.252;2023-06-10T06:30:16;2.45;;;1.40;;
46110;SDS011;31849;55.992;37.252;2023-06-10T06:35:19;5.25;;;1.40;;
46110;SDS011;31849;55.992;37.252;2023-06-10T06:45:28;6.50;;;1.50;;
46110;SDS011;31849;55.992;37.252;2023-06-10T06:50:31;2.60;;;1.30;;
46110;SDS011;31849;55.992;37.252;2023-06-10T06:55:35;2.15;;;1.25;;
46110;SDS011;31849;55.992;37.252;2023-06-10T07:00:40;2.83;;;1.23;;
46110;SDS011;31849;55.992;37.252;2023-06-10T07:05:43;2.63;;;1.13;;
46110;SDS011;31849;55.992;37.252;2023-06-10T07:10:47;3.78;;;1.20;;
46110;SDS011;31849;55.992;37.252;2023-06-10T07:15:52;3.55;;;1.40;;
46110;SDS011;31849;55.992;37.252;2023-06-10T07:20:56;2.60;;;1.60;;
46110;SDS011;31849;55.992;37.252;2023-06-10T07:26:00;5.72;;;1.33;;
46110;SDS011;31849;55.992;37.252;2023-06-10T07:31:05;3.03;;;1.20;;
46110;SDS011;31849;55.992;37.252;2023-06-10T07:36:09;3.30;;;1.10;;
46110;SDS011;31849;55.992;37.252;2023-06-10T07:41:12;2.95;;;1.20;;
46110;SDS011;31849;55.992;37.252;2023-06-10T07:46:21;1.77;;;1.10;;
46110;SDS011;31849;55.992;37.252;2023-06-10T07:51:25;3.25;;;1.20;;
46110;SDS011;31849;55.992;37.252;2023-06-10T07:56:29;2.22;;;1.13;;
46110;SDS011;31849;55.992;37.252;2023-06-10T08:01:34;2.10;;;1.00;;
46110;SDS011;31849;55.992;37.252;2023-06-10T08:06:41;3.35;;;1.27;;
46110;SDS011;31849;55.992;37.252;2023-06-10T08:11:46;1.90;;;1.00;;
46110;SDS011;31849;55.992;37.252;2023-06-10T08:16:51;2.78;;;1.23;;
46110;SDS011;31849;55.992;37.252;2023-06-10T08:21:55;1.98;;;1.10;;
46110;SDS011;31849;55.992;37.252;2023-06-10T08:26:58;3.78;;;1.10;;
46110;SDS011;31849;55.992;37.252;2023-06-10T08:32:04;3.33;;;1.20;;
46110;SDS011;31849;55.992;37.252;2023-06-10T08:37:08;2.33;;;1.13;;
46110;SDS011;31849;55.992;37.252;2023-06-10T08:42:15;7.07;;;1.00;;
46110;SDS011;31849;55.992;37.252;2023-06-10T08:47:26;2.20;;;1.10;;
46110;SDS011;31849;55.992;37.252;2023-06-10T08:52:35;2.72;;;1.00;;
46110;SDS011;31849;55.992;37.252;2023-06-10T09:02:47;3.80;;;1.00;;
46110;SDS011;31849;55.992;37.252;2023-06-10T09:07:53;2.38;;;0.90;;
46110;SDS011;31849;55.992;37.252;2023-06-10T09:12:58;3.40;;;1.08;;
46110;SDS011;31849;55.992;37.252;2023-06-10T09:18:03;3.05;;;1.10;;
46110;SDS011;31849;55.992;37.252;2023-06-10T09:23:08;2.20;;;0.95;;
46110;SDS011;31849;55.992;37.252;2023-06-10T09:28:13;4.00;;;1.48;;
46110;SDS011;31849;55.992;37.252;2023-06-10T09:33:19;2.70;;;1.00;;
46110;SDS011;31849;55.992;37.252;2023-06-10T09:38:32;3.72;;;0.88;;
46110;SDS011;31849;55.992;37.252;2023-06-10T09:43:39;2.33;;;1.13;;
46110;SDS011;31849;55.992;37.252;2023-06-10T09:48:46;2.53;;;0.82;;
46110;SDS011;31849;55.992;37.252;2023-06-10T09:53:50;2.53;;;0.95;;
46110;SDS011;31849;55.992;37.252;2023-06-10T09:58:54;2.75;;;0.98;;
46110;SDS011;31849;55.992;37.252;2023-06-10T10:03:59;4.43;;;1.00;;
46110;SDS011;31849;55.992;37.252;2023-06-10T10:09:03;3.45;;;0.90;;
46110;SDS011;31849;55.992;37.252;2023-06-10T10:14:07;3.40;;;1.00;;
46110;SDS011;31849;55.992;37.252;2023-06-10T10:24:21;4.25;;;1.30;;
46110;SDS011;31849;55.992;37.252;2023-06-10T10:29:37;3.80;;;1.00;;
46110;SDS011;31849;55.992;37.252;2023-06-10T10:34:45;1.92;;;1.00;;
46110;SDS011;31849;55.992;37.252;2023-06-10T10:39:54;2.60;;;1.10;;
46110;SDS011;31849;55.992;37.252;2023-06-10T10:44:58;2.35;;;1.33;;
46110;SDS011;31849;55.992;37.252;2023-06-10T10:50:12;2.28;;;1.00;;
46110;SDS011;31849;55.992;37.252;2023-06-10T10:55:17;4.20;;;1.08;;
46110;SDS011;31849;55.992;37.252;2023-06-10T11:00:24;3.07;;;1.10;;
46110;SDS011;31849;55.992;37.252;2023-06-10T11:05:38;2.53;;;1.00;;
46110;SDS011;31849;55.992;37.252;2023-06-10T11:10:50;3.08;;;1.10;;
46110;SDS011;31849;55.992;37.252;2023-06-10T11:15:57;2.33;;;1.10;;
46110;SDS011;31849;55.992;37.252;2023-06-10T11:21:03;1.80;;;0.98;;
46110;SDS011;31849;55.992;37.252;2023-06-10T11:26:11;2.67;;;1.00;;
46110;SDS011;31849;55.992;37.252;2023-06-10T11:31:18;2.78;;;1.30;;
46110;SDS011;31849;55.992;37.252;2023-06-10T11:36:25;1.70;;;1.10;;
46110;SDS011;31849;55.992;37.252;2023-06-10T11:41:30;3.67;;;1.20;;
46110;SDS011;31849;55.992;37.252;2023-06-10T11:46:35;3.38;;;1.25;;
46110;SDS011;31849;55.992;37.252;2023-06-10T11:51:40;3.80;;;1.20;;
46110;SDS011;31849;55.992;37.252;2023-06-10T11:56:56;3.00;;;1.23;;
46110;SDS011;31849;55.992;37.252;2023-06-10T12:02:01;4.03;;;1.00;;
46110;SDS011;31849;55.992;37.252;2023-06-10T12:07:06;2.67;;;1.10;;
46110;SDS011;31849;55.992;37.252;2023-06-10T12:12:10;2.80;;;1.00;;
46110;SDS011;31849;55.992;37.252;2023-06-10T12:17:14;3.95;;;1.33;;
46110;SDS011;31849;55.992;37.252;2023-06-10T12:22:19;5.18;;;1.13;;
46110;SDS011;31849;55.992;37.252;2023-06-10T12:27:25;3.60;;;1.30;;
46110;SDS011;31849;55.992;37.252;2023-06-10T12:32:35;3.72;;;1.10;;
46110;SDS011;31849;55.992;37.252;2023-06-10T12:37:41;2.78;;;1.10;;
46110;SDS011;31849;55.992;37.252;2023-06-10T12:42:45;2.58;;;1.15;;
46110;SDS011;31849;55.992;37.252;2023-06-10T12:47:50;3.53;;;1.15;;
46110;SDS011;31849;55.992;37.252;2023-06-10T12:52:55;4.32;;;1.20;;
46110;SDS011;31849;55.992;37.252;2023-06-10T12:57:59;3.50;;;1.30;;
46110;SDS011;31849;55.992;37.252;2023-06-10T13:03:05;5.65;;;1.40;;
46110;SDS011;31849;55.992;37.252;2023-06-10T13:08:10;2.70;;;1.27;;
46110;SDS011;31849;55.992;37.252;2023-06-10T13:13:14;2.15;;;1.15;;
46110;SDS011;31849;55.992;37.252;2023-06-10T13:18:17;2.97;;;1.17;;
46110;SDS011;31849;55.992;37.252;2023-06-10T13:23:23;2.67;;;1.10;;
46110;SDS011;31849;55.992;37.252;2023-06-10T13:28:27;3.20;;;1.30;;
46110;SDS011;31849;55.992;37.252;2023-06-10T13:38:36;2.83;;;1.35;;
46110;SDS011;31849;55.992;37.252;2023-06-10T13:43:40;3.03;;;1.10;;
46110;SDS011;31849;55.992;37.252;2023-06-10T13:48:43;3.47;;;1.40;;
46110;SDS011;31849;55.992;37.252;2023-06-10T13:53:48;4.43;;;1.30;;
46110;SDS011;31849;55.992;37.252;2023-06-10T13:58:53;2.53;;;1.20;;
46110;SDS011;31849;55.992;37.252;2023-06-10T14:03:57;5.80;;;1.30;;
46110;SDS011;31849;55.992;37.252;2023-06-10T14:09:02;4.93;;;1.45;;
46110;SDS011;31849;55.992;37.252;2023-06-10T14:14:06;6.20;;;1.25;;
46110;SDS011;31849;55.992;37.252;2023-06-10T14:19:10;3.70;;;1.20;;
46110;SDS011;31849;55.992;37.252;2023-06-10T14:24:15;3.40;;;1.60;;
46110;SDS011;31849;55.992;37.252;2023-06-10T14:29:19;2.38;;;1.20;;
46110;SDS011;31849;55.992;37.252;2023-06-10T14:34:22;2.42;;;1.23;;
46110;SDS011;31849;55.992;37.252;2023-06-10T14:39:31;3.08;;;1.23;;
46110;SDS011;31849;55.992;37.252;2023-06-10T14:44:35;4.90;;;1.27;;
46110;SDS011;31849;55.992;37.252;2023-06-10T14:49:39;4.20;;;1.60;;
46110;SDS011;31849;55.992;37.252;2023-06-10T14:59:48;3.85;;;1.20;;
46110;SDS011;31849;55.992;37.252;2023-06-10T15:04:51;2.08;;;1.08;;
46110;SDS011;31849;55.992;37.252;2023-06-10T15:09:56;3.08;;;1.10;;
46110;SDS011;31849;55.992;37.252;2023-06-10T15:15:00;3.30;;;1.30;;
46110;SDS011;31849;55.992;37.252;2023-06-10T15:20:07;4.35;;;1.40;;
46110;SDS011;31849;55.992;37.252;2023-06-10T15:25:12;2.42;;;1.50;;
46110;SDS011;31849;55.992;37.252;2023-06-10T15:30:19;3.38;;;1.58;;
46110;SDS011;31849;55.992;37.252;2023-06-10T15:35:22;2.35;;;1.60;;
46110;SDS011;31849;55.992;37.252;2023-06-10T15:40:27;4.10;;;1.63;;
46110;SDS011;31849;55.992;37.252;2023-06-10T15:45:31;2.08;;;1.30;;
46110;SDS011;31849;55.992;37.252;2023-06-10T15:50:36;3.33;;;1.40;;
46110;SDS011;31849;55.992;37.252;2023-06-10T15:55:41;3.80;;;1.27;;
46110;SDS011;31849;55.992;37.252;2023-06-10T16:00:45;5.00;;;1.40;;
46110;SDS011;31849;55.992;37.252;2023-06-10T16:05:49;2.95;;;1.52;;
46110;SDS011;31849;55.992;37.252;2023-06-10T16:10:54;5.25;;;1.23;;
46110;SDS011;31849;55.992;37.252;2023-06-10T16:15:57;5.10;;;1.55;;
46110;SDS011;31849;55.992;37.252;2023-06-10T16:21:01;2.70;;;1.63;;
46110;SDS011;31849;55.992;37.252;2023-06-10T16:26:06;5.33;;;1.37;;
46110;SDS011;31849;55.992;37.252;2023-06-10T16:31:10;3.40;;;1.45;;
46110;SDS011;31849;55.992;37.252;2023-06-10T16:36:13;11.43;;;1.67;;
46110;SDS011;31849;55.992;37.252;2023-06-10T16:41:18;5.38;;;1.60;;
46110;SDS011;31849;55.992;37.252;2023-06-10T16:46:22;2.53;;;1.20;;
46110;SDS011;31849;55.992;37.252;2023-06-10T16:51:26;3.97;;;1.33;;
46110;SDS011;31849;55.992;37.252;2023-06-10T16:56:31;3.13;;;1.60;;
46110;SDS011;31849;55.992;37.252;2023-06-10T17:01:35;3.63;;;1.30;;
46110;SDS011;31849;55.992;37.252;2023-06-10T17:06:38;3.85;;;1.88;;
46110;SDS011;31849;55.992;37.252;2023-06-10T17:11:43;4.30;;;1.70;;
46110;SDS011;31849;55.992;37.252;2023-06-10T17:16:47;2.58;;;1.58;;
46110;SDS011;31849;55.992;37.252;2023-06-10T17:21:51;5.80;;;1.77;;
46110;SDS011;31849;55.992;37.252;2023-06-10T17:26:56;4.03;;;1.55;;
46110;SDS011;31849;55.992;37.252;2023-06-10T17:32:00;4.85;;;1.73;;
46110;SDS011;31849;55.992;37.252;2023-06-10T17:37:04;2.30;;;1.27;;
46110;SDS011;31849;55.992;37.252;2023-06-10T17:42:09;4.18;;;1.63;;
46110;SDS011;31849;55.992;37.252;2023-06-10T17:47:12;3.72;;;1.40;;
46110;SDS011;31849;55.992;37.252;2023-06-10T17:52:16;2.73;;;1.77;;
46110;SDS011;31849;55.992;37.252;2023-06-10T17:57:21;3.42;;;1.55;;
46110;SDS011;31849;55.992;37.252;2023-06-10T18:02:25;4.75;;;1.83;;
46110;SDS011;31849;55.992;37.252;2023-06-10T18:07:29;5.20;;;1.80;;
46110;SDS011;31849;55.992;37.252;2023-06-10T18:12:34;4.03;;;1.57;;
46110;SDS011;31849;55.992;37.252;2023-06-10T18:17:38;5.07;;;1.75;;
46110;SDS011;31849;55.992;37.252;2023-06-10T18:22:42;3.50;;;1.80;;
46110;SDS011;31849;55.992;37.252;2023-06-10T18:27:47;6.20;;;1.88;;
46110;SDS011;31849;55.992;37.252;2023-06-10T18:32:51;7.50;;;2.00;;
46110;SDS011;31849;55.992;37.252;2023-06-10T18:37:55;6.00;;;2.25;;
46110;SDS011;31849;55.992;37.252;2023-06-10T18:43:00;3.75;;;2.00;;
46110;SDS011;31849;55.992;37.252;2023-06-10T18:48:03;5.82;;;2.00;;
46110;SDS011;31849;55.992;37.252;2023-06-10T18:53:07;4.80;;;1.93;;
46110;SDS011;31849;55.992;37.252;2023-06-10T18:58:12;4.13;;;2.30;;
46110;SDS011;31849;55.992;37.252;2023-06-10T19:03:16;5.32;;;2.35;;
46110;SDS011;31849;55.992;37.252;2023-06-10T19:08:20;4.00;;;2.00;;
46110;SDS011;31849;55.992;37.252;2023-06-10T19:13:25;5.40;;;2.40;;
46110;SDS011;31849;55.992;37.252;2023-06-10T19:18:30;6.32;;;2.55;;
46110;SDS011;31849;55.992;37.252;2023-06-10T19:23:34;3.00;;;2.20;;
46110;SDS011;31849;55.992;37.252;2023-06-10T19:28:39;6.18;;;2.65;;
46110;SDS011;31849;55.992;37.252;2023-06-10T19:33:43;4.88;;;2.60;;
46110;SDS011;31849;55.992;37.252;2023-06-10T19:38:46;6.95;;;2.58;;
46110;SDS011;31849;55.992;37.252;2023-06-10T19:43:52;3.72;;;2.47;;
46110;SDS011;31849;55.992;37.252;2023-06-10T19:48:55;7.80;;;3.10;;
46110;SDS011;31849;55.992;37.252;2023-06-10T19:54:02;6.22;;;2.83;;
46110;SDS011;31849;55.992;37.252;2023-06-10T19:59:07;5.80;;;2.70;;
46110;SDS011;31849;55.992;37.252;2023-06-10T20:04:11;7.00;;;2.65;;
46110;SDS011;31849;55.992;37.252;2023-06-10T20:09:15;5.57;;;2.65;;
46110;SDS011;31849;55.992;37.252;2023-06-10T20:14:20;7.82;;;2.80;;
46110;SDS011;31849;55.992;37.252;2023-06-10T20:19:24;6.25;;;2.45;;
46110;SDS011;31849;55.992;37.252;2023-06-10T20:24:27;7.78;;;2.42;;
46110;SDS011;31849;55.992;37.252;2023-06-10T20:29:32;5.50;;;2.58;;
46110;SDS011;31849;55.992;37.252;2023-06-10T20:34:36;5.03;;;2.65;;
46110;SDS011;31849;55.992;37.252;2023-06-10T20:39:40;5.57;;;2.75;;
46110;SDS011;31849;55.992;37.252;2023-06-10T20:44:45;5.95;;;2.40;;
46110;SDS011;31849;55.992;37.252;2023-06-10T20:49:50;5.65;;;2.90;;
46110;SDS011;31849;55.992;37.252;2023-06-10T20:59:58;4.25;;;2.50;;
46110;SDS011;31849;55.992;37.252;2023-06-10T21:05:07;4.93;;;2.58;;
46110;SDS011;31849;55.992;37.252;2023-06-10T21:10:12;5.22;;;3.03;;
46110;SDS011;31849;55.992;37.252;2023-06-10T21:15:17;5.73;;;2.97;;
46110;SDS011;31849;55.992;37.252;2023-06-10T21:20:21;6.75;;;2.65;;
46110;SDS011;31849;55.992;37.252;2023-06-10T21:25:25;6.90;;;3.58;;
46110;SDS011;31849;55.992;37.252;2023-06-10T21:30:30;6.63;;;3.30;;
46110;SDS011;31849;55.992;37.252;2023-06-10T21:35:33;6.93;;;3.42;;
46110;SDS011;31849;55.992;37.252;2023-06-10T21:40:37;8.50;;;3.20;;
46110;SDS011;31849;55.992;37.252;2023-06-10T21:45:42;6.25;;;3.05;;
46110;SDS011;31849;55.992;37.252;2023-06-10T21:50:46;8.13;;;3.50;;
46110;SDS011;31849;55.992;37.252;2023-06-10T21:55:49;12.55;;;3.65;;
46110;SDS011;31849;55.992;37.252;2023-06-10T22:00:54;9.55;;;3.78;;
46110;SDS011;31849;55.992;37.252;2023-06-10T22:05:58;5.45;;;3.30;;
46110;SDS011;31849;55.992;37.252;2023-06-10T22:11:04;7.32;;;3.20;;
46110;SDS011;31849;55.992;37.252;2023-06-10T22:16:09;7.07;;;3.45;;
46110;SDS011;31849;55.992;37.252;2023-06-10T22:21:12;9.98;;;3.65;;
46110;SDS011;31849;55.992;37.252;2023-06-10T22:26:16;7.60;;;3.60;;
46110;SDS011;31849;55.992;37.252;2023-06-10T22:31:21;4.45;;;2.92;;
46110;SDS011;31849;55.992;37.252;2023-06-10T22:36:25;4.78;;;3.00;;
46110;SDS011;31849;55.992;37.252;2023-06-10T22:41:28;6.70;;;2.60;;
46110;SDS011;31849;55.992;37.252;2023-06-10T22:46:34;3.83;;;2.60;;
46110;SDS011;31849;55.992;37.252;2023-06-10T22:51:37;5.00;;;3.03;;
46110;SDS011;31849;55.992;37.252;2023-06-10T22:56:41;9.83;;;3.23;;
46110;SDS011;31849;55.992;37.252;2023-06-10T23:01:46;6.85;;;3.10;;
46110;SDS011;31849;55.992;37.252;2023-06-10T23:06:50;5.10;;;3.25;;
46110;SDS011;31849;55.992;37.252;2023-06-10T23:11:53;6.15;;;2.88;;
46110;SDS011;31849;55.992;37.252;2023-06-10T23:16:58;7.72;;;3.47;;
46110;SDS011;31849;55.992;37.252;2023-06-10T23:27:06;5.22;;;3.28;;
46110;SDS011;31849;55.992;37.252;2023-06-10T23:32:12;6.18;;;3.20;;
46110;SDS011;31849;55.992;37.252;2023-06-10T23:37:16;4.75;;;3.10;;
46110;SDS011;31849;55.992;37.252;2023-06-10T23:42:21;5.93;;;3.30;;
46110;SDS011;31849;55.992;37.252;2023-06-10T23:52:31;5.43;;;3.30;;
46110;SDS011;31849;55.992;37.252;2023-06-10T23:57:34;5.90;;;3.30;;
